createdAt,value
2022-11-01T00:01:07.056Z,45.21
2022-11-01T00:03:35.469Z,45.09
2022-11-01T00:06:01.798Z,45.11
2022-11-01T00:08:28.482Z,45.29
2022-11-01T00:11:01.333Z,45.18
2022-11-01T00:13:27.616Z,45.22
2022-11-01T00:15:53.887Z,45.25
2022-11-01T00:18:21.520Z,45.35
2022-11-01T00:20:48.470Z,45.47
2022-11-01T00:23:14.713Z,45.37
2022-11-01T00:25:41.305Z,45.65
2022-11-01T00:28:07.597Z,45.42
2022-11-01T00:30:37.276Z,45.52
2022-11-01T00:33:04.087Z,45.24
2022-11-01T00:35:34.198Z,45.18
2022-11-01T00:38:00.997Z,45.03
2022-11-01T00:40:27.700Z,44.92
2022-11-01T00:42:53.971Z,44.70
2022-11-01T00:45:20.410Z,44.46
2022-11-01T00:47:47.404Z,43.97
2022-11-01T00:50:14.048Z,44.38
2022-11-01T00:52:40.531Z,44.30
2022-11-01T00:55:07.025Z,44.17
2022-11-01T00:57:35.331Z,44.09
2022-11-01T01:00:02.131Z,44.04
2022-11-01T01:02:28.603Z,43.95
2022-11-01T01:04:55.098Z,43.82
2022-11-01T01:07:21.332Z,43.67
2022-11-01T01:09:48.732Z,43.78
2022-11-01T01:12:14.994Z,43.77
2022-11-01T01:14:41.401Z,43.61
2022-11-01T01:17:07.855Z,43.55
2022-11-01T01:19:34.345Z,43.72
2022-11-01T01:22:01.104Z,43.55
2022-11-01T01:24:27.729Z,43.59
2022-11-01T01:26:54.155Z,43.60
2022-11-01T01:29:20.628Z,43.49
2022-11-01T01:31:46.926Z,43.48
2022-11-01T01:34:16.057Z,43.47
2022-11-01T01:36:42.588Z,43.13
2022-11-01T01:39:09.421Z,43.32
2022-11-01T01:41:54.452Z,43.20
2022-11-01T01:44:39.757Z,43.35
2022-11-01T01:47:06.646Z,43.13
2022-11-01T01:49:33.051Z,43.36
2022-11-01T01:51:59.481Z,43.20
2022-11-01T01:54:26.379Z,43.46
2022-11-01T01:56:52.988Z,43.36
2022-11-01T01:59:20.627Z,43.32
2022-11-01T02:01:47.022Z,43.31
2022-11-01T02:04:25.860Z,43.47
2022-11-01T02:06:52.792Z,43.34
2022-11-01T02:09:19.399Z,43.29
2022-11-01T02:11:45.716Z,43.29
2022-11-01T02:14:14.112Z,43.35
2022-11-01T02:16:56.740Z,43.31
2022-11-01T02:19:42.437Z,43.29
2022-11-01T02:22:17.433Z,43.35
2022-11-01T02:24:43.700Z,43.31
2022-11-01T02:27:28.856Z,43.34
2022-11-01T02:30:09.221Z,43.20
2022-11-01T02:32:38.741Z,43.53
2022-11-01T02:35:26.362Z,43.42
2022-11-01T02:37:55.705Z,43.45
2022-11-01T02:40:28.448Z,43.46
2022-11-01T02:42:59.105Z,43.40
2022-11-01T02:45:32.275Z,43.40
2022-11-01T02:47:59.593Z,43.51
2022-11-01T02:50:30.716Z,43.40
2022-11-01T02:52:57.419Z,43.42
2022-11-01T02:55:30.328Z,43.49
2022-11-01T02:58:07.440Z,43.45
2022-11-01T03:00:35.414Z,43.44
2022-11-01T03:03:04.644Z,43.56
2022-11-01T03:05:37.844Z,43.40
2022-11-01T03:08:05.893Z,43.37
2022-11-01T03:10:51.237Z,43.42
2022-11-01T03:13:32.728Z,43.43
2022-11-01T03:16:06.790Z,43.45
2022-11-01T03:18:35.355Z,43.49
2022-11-01T03:21:15.449Z,43.49
2022-11-01T03:24:02.079Z,43.45
2022-11-01T03:26:29.452Z,43.60
2022-11-01T03:28:59.082Z,43.70
2022-11-01T03:31:28.038Z,43.58
2022-11-01T03:33:57.163Z,43.61
2022-11-01T03:36:24.593Z,43.64
2022-11-01T03:38:59.756Z,43.53
2022-11-01T03:41:30.459Z,43.55
2022-11-01T03:43:56.792Z,43.63
2022-11-01T03:46:23.250Z,43.64
2022-11-01T03:48:49.506Z,43.51
2022-11-01T03:51:15.767Z,43.65
2022-11-01T03:53:42.020Z,43.49
2022-11-01T03:56:08.858Z,43.71
2022-11-01T03:58:41.965Z,43.55
2022-11-01T04:01:09.109Z,43.72
2022-11-01T04:03:36.103Z,43.59
2022-11-01T04:06:02.477Z,43.60
2022-11-01T04:08:28.896Z,43.68
2022-11-01T04:10:55.284Z,43.67
2022-11-01T04:13:21.637Z,43.68
2022-11-01T04:16:06.439Z,43.64
2022-11-01T04:18:51.451Z,43.57
2022-11-01T04:21:20.716Z,43.55
2022-11-01T04:23:48.071Z,43.61
2022-11-01T04:26:21.708Z,43.63
2022-11-01T04:28:57.802Z,43.56
2022-11-01T04:31:29.022Z,43.60
2022-11-01T04:33:56.128Z,43.61
2022-11-01T04:36:22.606Z,43.60
2022-11-01T04:38:52.603Z,43.53
2022-11-01T04:41:19.622Z,43.57
2022-11-01T04:43:47.061Z,43.48
2022-11-01T04:46:13.561Z,43.49
2022-11-01T04:48:39.936Z,43.61
2022-11-01T04:51:06.389Z,43.47
2022-11-01T04:53:32.709Z,43.53
2022-11-01T04:55:59.140Z,43.61
2022-11-01T04:58:25.359Z,43.60
2022-11-01T05:00:52.063Z,43.61
2022-11-01T05:03:18.537Z,43.58
2022-11-01T05:05:44.782Z,43.67
2022-11-01T05:08:12.377Z,43.74
2022-11-01T05:10:40.007Z,43.68
2022-11-01T05:13:06.911Z,43.79
2022-11-01T05:15:33.724Z,43.80
2022-11-01T05:18:01.882Z,43.75
2022-11-01T05:20:29.147Z,43.71
2022-11-01T05:23:02.669Z,43.65
2022-11-01T05:25:31.449Z,43.65
2022-11-01T05:28:01.505Z,43.62
2022-11-01T05:30:27.989Z,43.65
2022-11-01T05:32:58.488Z,43.76
2022-11-01T05:35:24.794Z,43.65
2022-11-01T05:37:51.204Z,43.64
2022-11-01T05:40:17.636Z,43.67
2022-11-01T05:42:44.056Z,43.61
2022-11-01T05:45:10.731Z,43.66
2022-11-01T05:47:40.246Z,43.75
2022-11-01T05:50:07.576Z,43.68
2022-11-01T05:52:33.989Z,43.68
2022-11-01T05:55:00.278Z,43.67
2022-11-01T05:57:29.711Z,43.65
2022-11-01T05:59:59.418Z,43.69
2022-11-01T06:02:25.899Z,43.76
2022-11-01T06:04:52.171Z,43.95
2022-11-01T06:07:18.435Z,43.95
2022-11-01T06:09:44.717Z,43.77
2022-11-01T06:12:10.924Z,43.79
2022-11-01T06:14:37.352Z,43.97
2022-11-01T06:17:06.165Z,43.91
2022-11-01T06:19:32.805Z,44.12
2022-11-01T06:21:59.079Z,44.02
2022-11-01T06:24:26.762Z,44.08
2022-11-01T06:26:53.035Z,44.16
2022-11-01T06:29:19.490Z,44.26
2022-11-01T06:31:45.743Z,44.28
2022-11-01T06:34:12.192Z,44.28
2022-11-01T06:36:38.454Z,44.26
2022-11-01T06:39:04.746Z,44.40
2022-11-01T06:41:31.160Z,44.25
2022-11-01T06:43:57.453Z,44.26
2022-11-01T06:46:23.675Z,44.34
2022-11-01T06:48:50.142Z,44.34
2022-11-01T06:51:16.606Z,44.32
2022-11-01T06:53:43.191Z,44.37
2022-11-01T06:56:09.396Z,44.52
2022-11-01T06:58:35.805Z,44.54
2022-11-01T07:01:02.992Z,44.23
2022-11-01T07:03:29.355Z,44.44
2022-11-01T07:05:55.789Z,44.47
2022-11-01T07:08:22.012Z,44.49
2022-11-01T07:10:50.085Z,44.29
2022-11-01T07:13:16.532Z,44.36
2022-11-01T07:15:42.943Z,44.07
2022-11-01T07:18:09.494Z,44.34
2022-11-01T07:20:41.521Z,44.39
2022-11-01T07:23:15.479Z,44.18
2022-11-01T07:25:42.101Z,44.35
2022-11-01T07:28:08.549Z,44.28
2022-11-01T07:30:34.944Z,44.40
2022-11-01T07:33:04.111Z,44.32
2022-11-01T07:35:30.678Z,44.06
2022-11-01T07:38:02.760Z,44.14
2022-11-01T07:40:31.689Z,44.00
2022-11-01T07:42:59.910Z,43.90
2022-11-01T07:45:27.256Z,43.53
2022-11-01T07:47:53.819Z,43.63
2022-11-01T07:50:20.101Z,43.53
2022-11-01T07:52:46.314Z,43.37
2022-11-01T07:55:12.744Z,41.65
2022-11-01T07:57:39.659Z,43.29
2022-11-01T08:00:06.691Z,43.03
2022-11-01T08:02:33.586Z,42.84
2022-11-01T08:04:59.972Z,42.38
2022-11-01T08:07:26.392Z,42.37
2022-11-01T08:09:52.812Z,42.47
2022-11-01T08:12:19.108Z,42.28
2022-11-01T08:14:45.360Z,42.43
2022-11-01T08:17:11.587Z,42.33
2022-11-01T08:19:37.919Z,41.63
2022-11-01T08:22:04.238Z,41.97
2022-11-01T08:24:30.479Z,42.40
2022-11-01T08:26:56.857Z,42.17
2022-11-01T08:29:23.120Z,42.22
2022-11-01T08:31:49.528Z,42.42
2022-11-01T08:34:16.885Z,41.90
2022-11-01T08:36:43.476Z,42.20
2022-11-01T08:41:41.066Z,42.44
2022-11-01T08:44:07.504Z,41.84
2022-11-01T08:46:33.795Z,42.30
2022-11-01T08:49:00.650Z,41.92
2022-11-01T08:51:27.508Z,42.23
2022-11-01T08:53:56.976Z,42.32
2022-11-01T08:56:25.060Z,42.32
2022-11-01T08:58:51.901Z,42.03
2022-11-01T09:01:18.338Z,41.83
2022-11-01T09:03:45.017Z,40.21
2022-11-01T09:06:11.475Z,41.81
2022-11-01T09:08:37.692Z,41.38
2022-11-01T09:11:05.974Z,41.42
2022-11-01T09:13:32.712Z,41.36
2022-11-01T09:16:01.478Z,40.87
2022-11-01T09:18:29.026Z,40.92
2022-11-01T09:20:55.973Z,41.49
2022-11-01T09:23:22.257Z,41.64
2022-11-01T09:25:48.539Z,41.40
2022-11-01T09:28:14.748Z,41.35
2022-11-01T09:30:49.629Z,41.41
2022-11-01T09:33:23.512Z,41.31
2022-11-01T09:35:54.098Z,41.36
2022-11-01T09:38:24.428Z,41.30
2022-11-01T09:40:59.064Z,40.60
2022-11-01T09:43:27.848Z,41.18
2022-11-01T09:45:55.716Z,40.56
2022-11-01T09:48:25.615Z,38.94
2022-11-01T09:50:52.051Z,40.71
2022-11-01T09:53:24.630Z,40.84
2022-11-01T09:55:57.214Z,40.07
2022-11-01T09:58:34.091Z,40.62
2022-11-01T10:01:06.337Z,40.46
2022-11-01T10:03:35.830Z,37.62
2022-11-01T10:06:08.781Z,39.53
2022-11-01T10:08:41.162Z,39.63
2022-11-01T10:11:19.008Z,39.93
2022-11-01T10:13:48.411Z,40.17
2022-11-01T10:16:14.817Z,39.55
2022-11-01T10:18:59.803Z,39.95
2022-11-01T10:21:29.772Z,39.88
2022-11-01T10:23:59.103Z,39.86
2022-11-01T10:26:26.939Z,39.68
2022-11-01T10:28:53.191Z,40.08
2022-11-01T10:31:22.664Z,39.91
2022-11-01T10:33:52.248Z,39.88
2022-11-01T10:36:21.159Z,39.76
2022-11-01T10:39:29.968Z,39.77
2022-11-01T10:41:42.206Z,39.57
2022-11-01T10:44:28.708Z,38.76
2022-11-01T10:46:55.497Z,39.01
2022-11-01T10:49:40.441Z,39.47
2022-11-01T10:52:17.584Z,39.63
2022-11-01T10:54:45.119Z,37.82
2022-11-01T10:57:15.147Z,37.75
2022-11-01T10:59:43.230Z,38.65
2022-11-01T11:02:23.803Z,38.86
2022-11-01T11:04:50.353Z,38.68
2022-11-01T11:07:21.334Z,39.68
2022-11-01T11:09:51.279Z,39.66
2022-11-01T11:12:19.131Z,38.37
2022-11-01T11:14:47.229Z,38.47
2022-11-01T11:17:33.765Z,39.30
2022-11-01T11:20:05.537Z,39.12
2022-11-01T11:22:36.342Z,38.91
2022-11-01T11:25:03.237Z,38.97
2022-11-01T11:27:31.058Z,38.69
2022-11-01T11:29:59.000Z,38.96
2022-11-01T11:32:27.343Z,35.58
2022-11-01T11:34:58.169Z,38.53
2022-11-01T11:37:26.677Z,37.59
2022-11-01T11:40:01.177Z,38.59
2022-11-01T11:42:27.600Z,38.23
2022-11-01T11:44:55.854Z,37.70
2022-11-01T11:47:24.709Z,38.51
2022-11-01T11:49:53.855Z,38.17
2022-11-01T11:52:28.812Z,38.17
2022-11-01T11:54:56.593Z,38.18
2022-11-01T11:57:29.753Z,37.53
2022-11-01T11:59:58.883Z,38.20
2022-11-01T12:02:30.811Z,38.05
2022-11-01T12:05:03.517Z,37.72
2022-11-01T12:07:37.072Z,37.69
2022-11-01T12:10:07.413Z,37.61
2022-11-01T12:12:42.691Z,37.64
2022-11-01T12:15:26.177Z,37.45
2022-11-01T12:17:53.288Z,36.99
2022-11-01T12:20:35.727Z,36.88
2022-11-01T12:23:14.577Z,37.33
2022-11-01T12:25:42.977Z,37.13
2022-11-01T12:28:23.123Z,36.54
2022-11-01T12:30:51.339Z,37.02
2022-11-01T12:33:43.885Z,36.75
2022-11-01T12:36:11.613Z,37.21
2022-11-01T12:38:54.721Z,37.26
2022-11-01T12:41:20.943Z,35.89
2022-11-01T12:44:06.013Z,36.85
2022-11-01T12:46:47.047Z,37.33
2022-11-01T12:49:29.488Z,37.25
2022-11-01T12:51:58.654Z,37.14
2022-11-01T12:54:29.229Z,37.31
2022-11-01T12:56:56.598Z,36.89
2022-11-01T12:59:34.404Z,37.00
2022-11-01T13:02:19.726Z,36.81
2022-11-01T13:04:49.297Z,36.94
2022-11-01T13:07:21.691Z,36.97
2022-11-01T13:09:47.933Z,36.92
2022-11-01T13:12:22.894Z,36.90
2022-11-01T13:15:03.697Z,36.73
2022-11-01T13:17:32.797Z,36.79
2022-11-01T13:20:14.573Z,36.57
2022-11-01T13:23:00.147Z,36.60
2022-11-01T13:25:26.645Z,37.06
2022-11-01T13:28:11.591Z,36.50
2022-11-01T13:30:39.950Z,36.68
2022-11-01T13:33:14.977Z,36.89
2022-11-01T13:36:03.296Z,35.77
2022-11-01T13:38:44.806Z,36.71
2022-11-01T13:41:19.673Z,36.34
2022-11-01T13:43:49.831Z,36.73
2022-11-01T13:46:30.782Z,36.83
2022-11-01T13:49:20.085Z,36.06
2022-11-01T13:51:57.686Z,36.77
2022-11-01T13:54:24.153Z,36.46
2022-11-01T13:56:55.083Z,36.02
2022-11-01T13:59:32.478Z,36.64
2022-11-01T14:02:31.044Z,36.79
2022-11-01T14:04:58.698Z,36.45
2022-11-01T14:07:25.852Z,36.47
2022-11-01T14:09:53.070Z,36.74
2022-11-01T14:12:30.612Z,36.55
2022-11-01T14:15:09.677Z,36.67
2022-11-01T14:17:35.992Z,36.87
2022-11-01T14:20:06.484Z,36.89
2022-11-01T14:22:33.527Z,36.71
2022-11-01T14:25:01.654Z,36.68
2022-11-01T14:27:27.894Z,36.46
2022-11-01T14:29:55.183Z,36.69
2022-11-01T14:32:23.099Z,36.58
2022-11-01T14:35:09.761Z,34.89
2022-11-01T14:37:38.420Z,36.65
2022-11-01T14:40:23.558Z,36.91
2022-11-01T14:42:52.125Z,36.58
2022-11-01T14:45:35.878Z,35.84
2022-11-01T14:48:21.498Z,36.63
2022-11-01T14:50:52.351Z,36.49
2022-11-01T14:53:19.966Z,36.30
2022-11-01T14:55:46.237Z,36.62
2022-11-01T14:58:20.330Z,36.48
2022-11-01T15:00:48.470Z,36.37
2022-11-01T15:03:15.259Z,36.78
2022-11-01T15:05:43.356Z,36.22
2022-11-01T15:08:28.121Z,36.18
2022-11-01T15:10:56.149Z,36.59
2022-11-01T15:13:23.574Z,36.73
2022-11-01T15:16:01.809Z,36.58
2022-11-01T15:18:28.478Z,36.60
2022-11-01T15:20:56.384Z,36.72
2022-11-01T15:23:28.603Z,36.69
2022-11-01T15:25:56.548Z,36.60
2022-11-01T15:28:26.334Z,36.68
2022-11-01T15:30:55.896Z,36.37
2022-11-01T15:33:24.218Z,36.80
2022-11-01T15:35:59.357Z,36.43
2022-11-01T15:38:27.131Z,36.29
2022-11-01T15:40:53.660Z,36.38
2022-11-01T15:43:19.913Z,36.52
2022-11-01T15:45:49.195Z,36.47
2022-11-01T15:48:18.499Z,36.23
2022-11-01T15:51:01.728Z,36.38
2022-11-01T15:53:30.439Z,36.54
2022-11-01T15:56:09.940Z,36.73
2022-11-01T15:58:38.815Z,36.14
2022-11-01T16:01:13.512Z,36.56
2022-11-01T16:03:45.161Z,36.49
2022-11-01T16:06:17.471Z,36.86
2022-11-01T16:08:50.858Z,36.61
2022-11-01T16:11:22.493Z,36.58
2022-11-01T16:13:54.581Z,36.69
2022-11-01T16:16:21.011Z,36.45
2022-11-01T16:18:49.497Z,36.63
2022-11-01T16:21:18.757Z,36.69
2022-11-01T16:24:09.972Z,36.63
2022-11-01T16:26:51.622Z,36.73
2022-11-01T16:29:17.980Z,36.80
2022-11-01T16:31:44.284Z,36.50
2022-11-01T16:34:22.601Z,37.11
2022-11-01T16:36:48.844Z,36.90
2022-11-01T16:39:24.322Z,36.80
2022-11-01T16:41:52.207Z,36.98
2022-11-01T16:44:18.920Z,36.98
2022-11-01T16:46:45.249Z,36.99
2022-11-01T16:49:19.676Z,36.86
2022-11-01T16:51:45.953Z,36.98
2022-11-01T16:54:12.759Z,37.02
2022-11-01T16:56:41.591Z,36.77
2022-11-01T16:59:16.671Z,36.84
2022-11-01T17:01:45.105Z,37.07
2022-11-01T17:04:11.925Z,36.82
2022-11-01T17:06:39.288Z,36.97
2022-11-01T17:09:10.487Z,36.80
2022-11-01T17:11:36.697Z,37.01
2022-11-01T17:14:02.973Z,36.87
2022-11-01T17:16:29.436Z,36.90
2022-11-01T17:18:57.545Z,36.90
2022-11-01T17:21:24.012Z,36.78
2022-11-01T17:23:51.101Z,36.97
2022-11-01T17:26:19.174Z,37.07
2022-11-01T17:28:49.655Z,37.03
2022-11-01T17:31:18.653Z,37.15
2022-11-01T17:33:45.078Z,36.95
2022-11-01T17:36:15.419Z,37.01
2022-11-01T17:38:41.880Z,37.01
2022-11-01T17:41:10.580Z,36.98
2022-11-01T17:43:37.025Z,36.98
2022-11-01T17:46:03.479Z,37.08
2022-11-01T17:48:29.987Z,37.00
2022-11-01T17:51:00.273Z,37.06
2022-11-01T17:53:26.501Z,36.97
2022-11-01T17:55:55.496Z,37.05
2022-11-01T17:58:21.909Z,36.92
2022-11-01T18:00:48.436Z,37.02
2022-11-01T18:03:17.687Z,37.05
2022-11-01T18:05:44.100Z,36.96
2022-11-01T18:08:17.855Z,37.03
2022-11-01T18:10:55.531Z,36.97
2022-11-01T18:13:31.327Z,37.22
2022-11-01T18:16:05.582Z,37.16
2022-11-01T18:18:47.784Z,37.01
2022-11-01T18:21:31.672Z,36.99
2022-11-01T18:24:00.995Z,37.19
2022-11-01T18:26:29.445Z,37.03
2022-11-01T18:29:11.196Z,37.22
2022-11-01T18:31:40.850Z,37.20
2022-11-01T18:34:20.851Z,37.09
2022-11-01T18:36:52.284Z,37.08
2022-11-01T18:39:37.981Z,37.20
2022-11-01T18:42:08.858Z,36.94
2022-11-01T18:44:35.370Z,37.16
2022-11-01T18:47:08.047Z,37.29
2022-11-01T18:49:35.331Z,37.21
2022-11-01T18:52:01.961Z,37.22
2022-11-01T18:54:33.245Z,37.24
2022-11-01T18:57:07.604Z,37.16
2022-11-01T18:59:36.792Z,37.25
2022-11-01T19:02:12.453Z,37.31
2022-11-01T19:04:39.796Z,37.59
2022-11-01T19:07:12.344Z,37.21
2022-11-01T19:09:40.965Z,37.27
2022-11-01T19:12:15.577Z,37.37
2022-11-01T19:14:43.059Z,37.33
2022-11-01T19:17:18.425Z,37.20
2022-11-01T19:19:44.801Z,37.19
2022-11-01T19:22:26.282Z,37.40
2022-11-01T19:24:52.549Z,37.44
2022-11-01T19:27:21.746Z,37.50
2022-11-01T19:29:51.876Z,37.41
2022-11-01T19:32:23.120Z,37.34
2022-11-01T19:34:52.648Z,37.60
2022-11-01T19:37:25.786Z,37.54
2022-11-01T19:39:52.869Z,37.52
2022-11-01T19:42:23.116Z,37.40
2022-11-01T19:44:49.747Z,37.56
2022-11-01T19:47:24.986Z,37.59
2022-11-01T19:49:51.220Z,37.58
2022-11-01T19:52:36.540Z,37.71
2022-11-01T19:55:20.133Z,37.67
2022-11-01T19:57:46.400Z,37.68
2022-11-01T20:00:19.475Z,37.55
2022-11-01T20:02:50.073Z,37.55
2022-11-01T20:05:26.243Z,37.67
2022-11-01T20:07:54.855Z,37.78
2022-11-01T20:10:21.589Z,37.62
2022-11-01T20:12:47.900Z,37.66
2022-11-01T20:15:14.386Z,37.58
2022-11-01T20:17:40.847Z,37.69
2022-11-01T20:20:07.438Z,37.77
2022-11-01T20:22:34.133Z,37.85
2022-11-01T20:25:00.872Z,37.78
2022-11-01T20:27:29.629Z,37.77
2022-11-01T20:29:55.904Z,37.85
2022-11-01T20:32:22.178Z,37.79
2022-11-01T20:34:48.421Z,37.79
2022-11-01T20:37:28.037Z,37.75
2022-11-01T20:39:54.888Z,37.84
2022-11-01T20:42:21.222Z,37.89
2022-11-01T20:44:47.441Z,37.95
2022-11-01T20:47:14.694Z,38.07
2022-11-01T20:49:40.900Z,38.09
2022-11-01T20:52:38.135Z,37.73
2022-11-01T20:54:53.402Z,38.04
2022-11-01T20:57:27.497Z,37.92
2022-11-01T20:59:55.656Z,37.89
2022-11-01T21:02:23.538Z,38.03
2022-11-01T21:05:09.359Z,38.17
2022-11-01T21:07:36.001Z,38.22
2022-11-01T21:10:02.501Z,38.15
2022-11-01T21:12:28.896Z,37.98
2022-11-01T21:14:56.691Z,38.02
2022-11-01T21:17:22.934Z,38.14
2022-11-01T21:19:53.403Z,38.32
2022-11-01T21:22:20.811Z,38.15
2022-11-01T21:24:49.289Z,38.05
2022-11-01T21:27:23.068Z,38.16
2022-11-01T21:29:49.850Z,38.27
2022-11-01T21:32:35.127Z,38.19
2022-11-01T21:35:21.366Z,38.15
2022-11-01T21:37:50.195Z,38.06
2022-11-01T21:40:47.444Z,38.12
2022-11-01T21:43:22.586Z,37.94
2022-11-01T21:45:48.880Z,38.11
2022-11-01T21:48:28.928Z,37.96
2022-11-01T21:50:56.337Z,38.16
2022-11-01T21:53:25.005Z,38.31
2022-11-01T21:55:51.290Z,38.32
2022-11-01T21:58:18.622Z,38.06
2022-11-01T22:00:44.907Z,38.16
2022-11-01T22:03:11.138Z,38.25
2022-11-01T22:05:37.571Z,38.30
2022-11-01T22:08:03.895Z,38.25
2022-11-01T22:10:30.142Z,38.33
2022-11-01T22:12:56.403Z,38.15
2022-11-01T22:15:22.613Z,38.17
2022-11-01T22:17:49.037Z,38.36
2022-11-01T22:20:15.512Z,38.35
2022-11-01T22:22:41.927Z,38.29
2022-11-01T22:25:08.500Z,38.44
2022-11-01T22:27:34.941Z,38.39
2022-11-01T22:30:01.284Z,38.52
2022-11-01T22:32:27.717Z,38.41
2022-11-01T22:34:53.976Z,38.39
2022-11-01T22:37:20.406Z,38.53
2022-11-01T22:39:52.060Z,38.34
2022-11-01T22:42:19.570Z,38.48
2022-11-01T22:44:47.108Z,38.55
2022-11-01T22:47:27.026Z,38.63
2022-11-01T22:49:54.764Z,38.53
2022-11-01T22:52:44.356Z,38.56
2022-11-01T22:55:10.845Z,38.44
2022-11-01T22:57:58.318Z,38.51
2022-11-01T23:00:32.135Z,38.45
2022-11-01T23:03:00.365Z,38.64
2022-11-01T23:05:26.981Z,38.58
2022-11-01T23:07:58.482Z,38.66
2022-11-01T23:10:32.406Z,38.67
2022-11-01T23:13:29.646Z,38.60
2022-11-01T23:15:58.344Z,38.87
2022-11-01T23:18:30.388Z,38.76
2022-11-01T23:20:57.959Z,38.78
2022-11-01T23:23:24.561Z,38.87
2022-11-01T23:25:51.550Z,38.82
2022-11-01T23:28:18.021Z,39.11
2022-11-01T23:30:45.460Z,38.83
2022-11-01T23:33:12.932Z,39.17
2022-11-01T23:35:41.614Z,39.21
2022-11-01T23:38:19.807Z,39.08
2022-11-01T23:40:46.185Z,38.97
2022-11-01T23:43:24.205Z,38.95
2022-11-01T23:45:50.900Z,39.14
2022-11-01T23:48:18.883Z,39.13
2022-11-01T23:50:45.164Z,39.12
2022-11-01T23:53:14.910Z,39.18
2022-11-01T23:55:43.997Z,39.19
2022-11-01T23:58:12.703Z,39.22
